createdAt,value
2022-10-24T00:01:22.298Z,26.50
2022-10-24T00:04:08.074Z,25.50
2022-10-24T00:06:53.544Z,26.13
2022-10-24T00:09:39.394Z,29.90
2022-10-24T00:12:25.303Z,29.45
2022-10-24T00:15:11.236Z,31.58
2022-10-24T00:17:56.974Z,33.35
2022-10-24T00:23:28.853Z,33.63
2022-10-24T00:26:15.765Z,31.83
2022-10-24T00:31:52.154Z,33.22
2022-10-24T00:34:38.567Z,33.65
2022-10-24T00:37:24.258Z,32.33
2022-10-24T00:40:14.319Z,33.38
2022-10-24T00:42:59.686Z,33.90
2022-10-24T00:45:48.186Z,34.95
2022-10-24T00:48:46.781Z,35.60
2022-10-24T00:51:34.324Z,37.10
2022-10-24T00:54:20.261Z,35.10
2022-10-24T00:57:13.681Z,38.22
2022-10-24T01:00:06.294Z,36.90
2022-10-24T01:02:52.026Z,36.58
2022-10-24T01:05:49.935Z,36.03
2022-10-24T01:08:47.830Z,36.30
2022-10-24T01:11:45.333Z,36.00
2022-10-24T01:14:33.927Z,37.58
2022-10-24T01:17:34.223Z,37.88
2022-10-24T01:20:41.301Z,37.72
2022-10-24T01:23:56.003Z,37.08
2022-10-24T01:26:47.619Z,35.88
2022-10-24T01:30:00.517Z,35.75
2022-10-24T01:32:55.242Z,36.60
2022-10-24T01:35:54.070Z,36.83
2022-10-24T01:38:46.533Z,35.35
2022-10-24T01:41:33.690Z,36.80
2022-10-24T01:44:24.938Z,38.53
2022-10-24T01:47:22.774Z,39.55
2022-10-24T01:50:13.274Z,41.15
2022-10-24T01:52:59.472Z,38.28
2022-10-24T01:55:46.930Z,39.25
2022-10-24T01:58:32.681Z,39.05
2022-10-24T02:01:23.795Z,39.30
2022-10-24T02:04:12.967Z,40.25
2022-10-24T02:07:03.884Z,39.45
2022-10-24T02:10:02.472Z,39.05
2022-10-24T02:12:53.486Z,41.20
2022-10-24T02:15:44.910Z,45.05
2022-10-24T02:18:31.826Z,42.90
2022-10-24T02:21:52.308Z,44.15
2022-10-24T02:24:58.289Z,45.25
2022-10-24T02:27:48.282Z,44.20
2022-10-24T02:30:39.318Z,45.20
2022-10-24T02:33:27.477Z,42.53
2022-10-24T02:36:17.401Z,43.92
2022-10-24T02:39:07.074Z,46.15
2022-10-24T02:41:55.741Z,44.92
2022-10-24T02:44:43.876Z,43.00
2022-10-24T02:47:31.270Z,41.78
2022-10-24T02:50:17.342Z,43.00
2022-10-24T02:53:03.182Z,41.42
2022-10-24T02:55:48.602Z,44.22
2022-10-24T02:58:34.172Z,43.85
2022-10-24T03:01:20.168Z,46.47
2022-10-24T03:04:05.935Z,43.28
2022-10-24T03:06:51.411Z,45.05
2022-10-24T03:09:37.175Z,45.35
2022-10-24T03:12:24.335Z,44.10
2022-10-24T03:15:10.589Z,45.92
2022-10-24T03:17:56.271Z,47.03
2022-10-24T03:20:42.094Z,45.17
2022-10-24T03:23:28.722Z,45.42
2022-10-24T03:26:14.455Z,45.40
2022-10-24T03:29:00.041Z,46.88
2022-10-24T03:31:46.313Z,48.42
2022-10-24T03:34:32.077Z,49.47
2022-10-24T03:37:17.866Z,47.00
2022-10-24T03:40:03.938Z,47.08
2022-10-24T03:42:49.781Z,48.50
2022-10-24T03:45:35.344Z,46.25
2022-10-24T03:48:21.215Z,51.20
2022-10-24T03:51:07.072Z,51.25
2022-10-24T03:53:52.742Z,51.08
2022-10-24T03:56:38.637Z,50.88
2022-10-24T03:59:24.185Z,49.70
2022-10-24T04:02:09.681Z,49.28
2022-10-24T04:04:55.400Z,48.83
2022-10-24T04:07:41.061Z,48.55
2022-10-24T04:10:27.644Z,50.40
2022-10-24T04:13:13.089Z,50.38
2022-10-24T04:15:58.877Z,50.13
2022-10-24T04:18:45.131Z,51.03
2022-10-24T04:21:30.857Z,50.30
2022-10-24T04:24:17.246Z,47.30
2022-10-24T04:27:02.630Z,45.13
2022-10-24T04:29:48.339Z,46.63
2022-10-24T04:32:34.110Z,41.00
2022-10-24T04:35:19.862Z,43.95
2022-10-24T04:38:06.618Z,40.00
2022-10-24T04:40:54.012Z,39.92
2022-10-24T04:43:40.611Z,41.35
2022-10-24T04:46:26.357Z,43.65
2022-10-24T04:49:11.838Z,41.17
2022-10-24T04:51:57.431Z,42.10
2022-10-24T04:54:43.102Z,42.40
2022-10-24T04:57:28.818Z,41.35
2022-10-24T05:00:15.044Z,41.38
2022-10-24T05:03:00.955Z,42.58
2022-10-24T05:05:47.345Z,40.63
2022-10-24T05:08:33.066Z,41.42
2022-10-24T05:11:18.831Z,41.75
2022-10-24T05:14:04.566Z,42.83
2022-10-24T05:16:50.373Z,41.80
2022-10-24T05:19:36.514Z,41.72
2022-10-24T05:22:22.410Z,42.30
2022-10-24T05:25:08.314Z,41.72
2022-10-24T05:27:54.185Z,41.05
2022-10-24T05:30:39.788Z,40.47
2022-10-24T05:33:25.167Z,39.00
2022-10-24T05:36:11.015Z,40.05
2022-10-24T05:38:57.704Z,37.03
2022-10-24T05:41:46.271Z,38.75
2022-10-24T05:44:33.663Z,38.92
2022-10-24T05:47:19.469Z,37.58
2022-10-24T05:50:06.969Z,36.45
2022-10-24T05:52:53.446Z,37.15
2022-10-24T05:55:39.107Z,38.97
2022-10-24T05:58:25.038Z,37.20
2022-10-24T06:01:10.846Z,40.08
2022-10-24T06:03:57.067Z,40.78
2022-10-24T06:06:44.477Z,38.30
2022-10-24T06:09:30.417Z,37.45
2022-10-24T06:12:16.368Z,38.22
2022-10-24T06:15:02.330Z,39.72
2022-10-24T06:17:48.197Z,37.80
2022-10-24T06:20:33.723Z,39.95
2022-10-24T06:23:19.662Z,36.78
2022-10-24T06:26:14.201Z,37.70
2022-10-24T06:28:59.712Z,39.05
2022-10-24T06:31:45.526Z,39.53
2022-10-24T06:34:31.571Z,39.30
2022-10-24T06:37:17.398Z,33.53
2022-10-24T06:40:03.243Z,33.00
2022-10-24T06:42:48.790Z,30.17
2022-10-24T06:45:35.082Z,32.15
2022-10-24T06:48:20.555Z,30.80
2022-10-24T06:51:07.109Z,33.28
2022-10-24T06:53:52.968Z,33.22
2022-10-24T06:56:38.516Z,30.92
2022-10-24T06:59:24.497Z,32.70
2022-10-24T07:02:13.867Z,33.88
2022-10-24T07:04:59.790Z,35.28
2022-10-24T07:07:45.982Z,35.20
2022-10-24T07:10:32.219Z,34.72
2022-10-24T07:13:18.038Z,36.97
2022-10-24T07:16:04.473Z,37.05
2022-10-24T07:18:50.070Z,37.03
2022-10-24T07:21:35.597Z,36.35
2022-10-24T07:24:22.733Z,37.22
2022-10-24T07:27:08.527Z,37.97
2022-10-24T07:29:54.172Z,37.20
2022-10-24T07:32:39.802Z,35.97
2022-10-24T07:35:25.669Z,38.13
2022-10-24T07:38:16.364Z,36.08
2022-10-24T07:41:06.025Z,35.83
2022-10-24T07:43:52.872Z,35.35
2022-10-24T07:46:41.355Z,35.42
2022-10-24T07:49:30.205Z,35.15
2022-10-24T07:52:18.471Z,34.80
2022-10-24T07:55:04.699Z,32.85
2022-10-24T07:57:50.464Z,31.00
2022-10-24T08:00:39.085Z,31.30
2022-10-24T08:03:31.205Z,28.58
2022-10-24T08:06:19.910Z,29.15
2022-10-24T08:09:05.618Z,28.45
2022-10-24T08:11:51.226Z,29.67
2022-10-24T08:14:38.796Z,29.80
2022-10-24T08:17:24.727Z,31.65
2022-10-24T08:20:11.078Z,30.27
2022-10-24T08:22:56.589Z,30.05
2022-10-24T08:25:42.138Z,31.45
2022-10-24T08:28:27.822Z,29.73
2022-10-24T08:31:16.658Z,30.80
2022-10-24T08:34:05.530Z,30.30
2022-10-24T08:36:52.256Z,30.30
2022-10-24T08:39:38.643Z,29.60
2022-10-24T08:42:25.675Z,29.95
2022-10-24T08:45:22.441Z,30.00
2022-10-24T08:48:13.138Z,30.38
2022-10-24T08:51:53.375Z,29.75
2022-10-24T08:54:42.537Z,31.40
2022-10-24T09:00:19.104Z,30.60
2022-10-24T09:03:31.436Z,28.42
2022-10-24T09:06:32.975Z,29.50
2022-10-24T09:09:26.719Z,27.30
2022-10-24T09:12:19.351Z,29.67
2022-10-24T09:15:13.974Z,29.48
2022-10-24T09:18:00.093Z,28.85
2022-10-24T09:20:46.985Z,28.50
2022-10-24T09:23:34.082Z,32.80
2022-10-24T09:26:31.917Z,30.05
2022-10-24T09:29:17.547Z,27.38
2022-10-24T09:32:04.064Z,28.40
2022-10-24T09:34:50.958Z,27.92
2022-10-24T09:37:44.388Z,26.17
2022-10-24T09:40:34.489Z,26.90
2022-10-24T09:43:32.145Z,26.65
2022-10-24T09:46:19.359Z,26.77
2022-10-24T09:49:14.567Z,27.77
2022-10-24T09:52:22.273Z,27.80
2022-10-24T09:55:22.951Z,28.00
2022-10-24T09:58:19.462Z,27.45
2022-10-24T10:01:18.210Z,26.70
2022-10-24T10:04:09.417Z,25.25
2022-10-24T10:06:56.250Z,26.60
2022-10-24T10:09:56.662Z,26.42
2022-10-24T10:12:44.863Z,27.55
2022-10-24T10:15:44.228Z,25.95
2022-10-24T10:18:39.027Z,26.50
2022-10-24T10:21:25.191Z,26.98
2022-10-24T10:24:35.935Z,26.15
2022-10-24T10:27:35.102Z,24.98
2022-10-24T10:30:21.970Z,25.40
2022-10-24T10:33:19.292Z,26.00
2022-10-24T10:36:15.073Z,23.58
2022-10-24T10:39:12.899Z,24.83
2022-10-24T10:42:21.996Z,24.58
2022-10-24T10:45:10.474Z,24.50
2022-10-24T10:48:25.112Z,23.60
2022-10-24T10:51:26.103Z,23.58
2022-10-24T10:54:46.634Z,24.27
2022-10-24T10:57:42.458Z,22.67
2022-10-24T11:01:02.163Z,23.55
2022-10-24T11:04:16.926Z,23.27
2022-10-24T11:07:23.571Z,22.67
2022-10-24T11:10:13.706Z,24.65
2022-10-24T11:13:03.645Z,24.67
2022-10-24T11:15:54.079Z,23.42
2022-10-24T11:18:43.993Z,23.90
2022-10-24T11:21:33.355Z,23.65
2022-10-24T11:24:22.938Z,22.42
2022-10-24T11:27:24.235Z,22.33
2022-10-24T11:30:16.745Z,22.23
2022-10-24T11:33:06.931Z,23.08
2022-10-24T11:36:08.136Z,24.35
2022-10-24T11:39:01.815Z,24.38
2022-10-24T11:41:59.826Z,23.77
2022-10-24T11:44:58.795Z,24.77
2022-10-24T11:48:11.340Z,25.02
2022-10-24T11:51:12.185Z,25.80
2022-10-24T11:54:20.154Z,24.83
2022-10-24T11:59:59.954Z,23.92
2022-10-24T12:03:08.304Z,15.02
2022-10-24T12:06:26.090Z,8.23
2022-10-24T12:09:46.859Z,7.18
2022-10-24T12:12:41.530Z,6.30
2022-10-24T12:15:51.076Z,5.95
2022-10-24T12:18:38.348Z,6.72
2022-10-24T12:21:28.323Z,5.88
2022-10-24T12:24:32.878Z,6.28
2022-10-24T12:27:35.943Z,5.93
2022-10-24T12:30:26.472Z,6.50
2022-10-24T12:33:27.787Z,6.30
2022-10-24T12:36:13.858Z,6.35
2022-10-24T12:38:59.458Z,6.10
2022-10-24T12:41:45.108Z,5.95
2022-10-24T12:44:33.992Z,6.15
2022-10-24T12:47:38.558Z,6.00
2022-10-24T12:50:24.361Z,5.65
2022-10-24T12:53:19.215Z,5.68
2022-10-24T12:56:10.211Z,5.68
2022-10-24T12:59:11.997Z,5.95
2022-10-24T13:02:16.167Z,6.03
2022-10-24T13:05:44.199Z,6.25
2022-10-24T13:08:53.035Z,6.25
2022-10-24T13:11:57.057Z,6.43
2022-10-24T13:14:54.595Z,5.45
2022-10-24T13:17:59.913Z,5.95
2022-10-24T13:20:50.210Z,6.75
2022-10-24T13:23:36.102Z,6.25
2022-10-24T13:26:41.830Z,5.82
2022-10-24T13:29:27.264Z,5.53
2022-10-24T13:32:15.364Z,5.63
2022-10-24T13:35:07.948Z,6.20
2022-10-24T13:38:00.536Z,6.03
2022-10-24T13:40:47.312Z,5.32
2022-10-24T13:43:33.450Z,6.07
2022-10-24T13:46:36.980Z,6.50
2022-10-24T13:52:19.434Z,5.97
2022-10-24T13:58:18.614Z,6.18
2022-10-24T14:01:41.972Z,6.10
2022-10-24T14:04:29.111Z,5.70
2022-10-24T14:07:21.398Z,5.50
2022-10-24T14:15:34.497Z,5.93
2022-10-24T14:18:20.771Z,5.93
2022-10-24T14:21:06.362Z,6.05
2022-10-24T14:24:01.687Z,5.65
2022-10-24T14:26:49.321Z,6.32
2022-10-24T14:29:35.691Z,5.85
2022-10-24T14:32:21.381Z,5.68
2022-10-24T14:35:07.465Z,5.30
2022-10-24T14:37:53.025Z,5.95
2022-10-24T14:40:38.637Z,5.68
2022-10-24T14:43:29.603Z,5.80
2022-10-24T14:46:15.039Z,5.47
2022-10-24T14:49:21.401Z,5.22
2022-10-24T14:52:07.253Z,5.97
2022-10-24T14:54:59.671Z,5.55
2022-10-24T14:57:51.231Z,5.83
2022-10-24T15:00:39.859Z,6.07
2022-10-24T15:03:27.378Z,4.85
2022-10-24T15:06:40.294Z,6.13
2022-10-24T15:09:26.343Z,6.10
2022-10-24T15:12:12.822Z,5.50
2022-10-24T15:16:43.543Z,5.80
2022-10-24T15:19:29.239Z,5.65
2022-10-24T15:22:38.387Z,5.75
2022-10-24T15:25:43.234Z,5.30
2022-10-24T15:28:45.269Z,5.63
2022-10-24T15:31:34.027Z,6.03
2022-10-24T15:34:22.548Z,5.72
2022-10-24T15:37:21.819Z,5.43
2022-10-24T15:40:19.267Z,5.70
2022-10-24T15:43:04.856Z,5.63
2022-10-24T15:45:51.708Z,5.53
2022-10-24T15:48:39.473Z,5.70
2022-10-24T15:51:25.587Z,6.55
2022-10-24T15:54:13.279Z,5.78
2022-10-24T15:57:02.818Z,7.13
2022-10-24T15:59:51.082Z,5.43
2022-10-24T16:02:36.998Z,5.70
2022-10-24T16:05:25.967Z,6.47
2022-10-24T16:08:14.905Z,6.10
2022-10-24T16:11:00.557Z,5.32
2022-10-24T16:13:46.364Z,6.20
2022-10-24T16:16:31.931Z,5.18
2022-10-24T16:19:17.938Z,5.95
2022-10-24T16:22:03.743Z,5.93
2022-10-24T16:24:49.305Z,5.82
2022-10-24T16:27:35.072Z,6.32
2022-10-24T16:30:23.707Z,6.00
2022-10-24T16:33:09.763Z,5.78
2022-10-24T16:35:55.452Z,5.82
2022-10-24T16:38:41.198Z,5.10
2022-10-24T16:41:26.959Z,7.20
2022-10-24T16:44:14.008Z,6.75
2022-10-24T16:46:59.797Z,6.00
2022-10-24T16:49:45.750Z,6.63
2022-10-24T16:52:31.373Z,6.75
2022-10-24T16:56:26.852Z,5.93
2022-10-24T16:59:15.369Z,6.70
2022-10-24T17:02:01.545Z,6.45
2022-10-24T17:04:47.032Z,6.50
2022-10-24T17:07:32.518Z,7.30
2022-10-24T17:10:20.800Z,6.78
2022-10-24T17:13:09.647Z,6.80
2022-10-24T17:15:55.114Z,7.15
2022-10-24T17:18:45.745Z,6.78
2022-10-24T17:21:37.231Z,6.90
2022-10-24T17:24:41.402Z,7.25
2022-10-24T17:31:07.276Z,6.55
2022-10-24T17:33:56.129Z,5.95
2022-10-24T17:36:45.982Z,5.82
2022-10-24T17:39:47.554Z,6.47
2022-10-24T17:42:34.351Z,6.05
2022-10-24T17:45:23.035Z,5.95
2022-10-24T17:48:10.313Z,6.50
2022-10-24T17:50:58.400Z,5.43
2022-10-24T17:53:43.961Z,5.80
2022-10-24T17:56:29.779Z,5.53
2022-10-24T17:59:15.418Z,5.70
2022-10-24T18:02:01.140Z,5.55
2022-10-24T18:04:46.872Z,5.50
2022-10-24T18:07:36.191Z,5.45
2022-10-24T18:10:21.955Z,5.63
2022-10-24T18:13:08.308Z,5.70
2022-10-24T18:15:53.693Z,6.72
2022-10-24T18:18:40.132Z,5.97
2022-10-24T18:21:27.302Z,5.88
2022-10-24T18:24:12.707Z,5.82
2022-10-24T18:26:58.638Z,6.50
2022-10-24T18:29:44.345Z,6.45
2022-10-24T18:32:29.747Z,6.07
2022-10-24T18:35:15.796Z,6.72
2022-10-24T18:38:02.122Z,5.40
2022-10-24T18:40:48.011Z,6.22
2022-10-24T18:43:33.645Z,6.07
2022-10-24T18:46:19.900Z,6.45
2022-10-24T18:49:06.811Z,5.68
2022-10-24T18:52:05.922Z,6.45
2022-10-24T18:55:06.753Z,5.90
2022-10-24T18:57:52.959Z,6.00
2022-10-24T19:00:42.282Z,6.40
2022-10-24T19:03:48.894Z,7.00
2022-10-24T19:06:46.105Z,6.78
2022-10-24T19:09:34.854Z,6.85
2022-10-24T19:12:20.447Z,6.13
2022-10-24T19:15:06.557Z,6.72
2022-10-24T19:17:52.296Z,6.97
2022-10-24T19:20:38.439Z,6.13
2022-10-24T19:23:24.863Z,6.03
2022-10-24T19:26:11.941Z,6.05
2022-10-24T19:29:00.016Z,6.65
2022-10-24T19:31:47.860Z,5.60
2022-10-24T19:34:35.537Z,6.32
2022-10-24T19:37:24.074Z,5.68
2022-10-24T19:40:10.790Z,6.45
2022-10-24T19:42:56.868Z,7.10
2022-10-24T19:45:49.985Z,6.60
2022-10-24T19:48:40.983Z,7.05
2022-10-24T19:51:26.591Z,7.10
2022-10-24T19:54:12.629Z,6.65
2022-10-24T19:56:58.367Z,6.22
2022-10-24T19:59:44.263Z,6.43
2022-10-24T20:02:29.989Z,6.03
2022-10-24T20:05:15.638Z,5.72
2022-10-24T20:08:01.321Z,6.43
2022-10-24T20:10:54.019Z,6.50
2022-10-24T20:13:39.361Z,6.35
2022-10-24T20:16:24.850Z,5.75
2022-10-24T20:19:10.613Z,6.60
2022-10-24T20:21:57.891Z,6.32
2022-10-24T20:24:46.537Z,5.65
2022-10-24T20:27:38.791Z,5.85
2022-10-24T20:30:24.994Z,6.25
2022-10-24T20:33:10.778Z,5.93
2022-10-24T20:36:00.850Z,6.80
2022-10-24T20:38:46.285Z,5.70
2022-10-24T20:41:32.723Z,6.15
2022-10-24T20:44:18.184Z,5.68
2022-10-24T20:47:03.738Z,5.75
2022-10-24T20:49:49.553Z,6.13
2022-10-24T20:52:35.062Z,6.75
2022-10-24T20:55:31.735Z,5.28
2022-10-24T20:58:25.405Z,5.50
2022-10-24T21:01:19.896Z,5.43
2022-10-24T21:04:05.495Z,5.53
2022-10-24T21:06:51.294Z,6.28
2022-10-24T21:09:37.575Z,6.25
2022-10-24T21:12:23.200Z,6.93
2022-10-24T21:15:10.241Z,6.30
2022-10-24T21:17:56.987Z,6.80
2022-10-24T21:20:45.579Z,6.78
2022-10-24T21:23:31.404Z,6.15
2022-10-24T21:26:17.356Z,6.10
2022-10-24T21:29:09.381Z,7.35
2022-10-24T21:32:06.821Z,7.28
2022-10-24T21:34:52.743Z,6.88
2022-10-24T21:37:39.702Z,6.13
2022-10-24T21:40:25.531Z,6.88
2022-10-24T21:43:10.968Z,7.03
2022-10-24T21:46:18.591Z,7.05
2022-10-24T21:49:04.396Z,7.50
2022-10-24T21:51:50.278Z,7.18
2022-10-24T21:54:35.964Z,6.68
2022-10-24T21:57:21.333Z,6.45
2022-10-24T22:00:07.750Z,7.15
2022-10-24T22:02:53.432Z,7.00
2022-10-24T22:05:39.225Z,6.85
2022-10-24T22:08:25.278Z,6.88
2022-10-24T22:11:19.135Z,7.70
2022-10-24T22:16:51.201Z,7.13
2022-10-24T22:19:36.620Z,6.97
2022-10-24T22:22:22.246Z,6.35
2022-10-24T22:25:08.267Z,6.47
2022-10-24T22:27:53.666Z,6.60
2022-10-24T22:30:40.793Z,6.18
2022-10-24T22:33:33.941Z,7.30
2022-10-24T22:36:25.439Z,6.50
2022-10-24T22:39:17.619Z,7.13
2022-10-24T22:42:05.060Z,6.32
2022-10-24T22:44:51.057Z,6.25
2022-10-24T22:47:41.829Z,7.20
2022-10-24T22:50:46.984Z,5.75
2022-10-24T22:53:32.945Z,5.90
2022-10-24T22:56:23.113Z,6.43
2022-10-24T22:59:09.034Z,6.43
2022-10-24T23:02:29.440Z,6.90
2022-10-24T23:05:30.729Z,6.30
2022-10-24T23:08:36.359Z,6.90
2022-10-24T23:11:22.281Z,6.45
2022-10-24T23:14:09.486Z,7.15
2022-10-24T23:17:00.953Z,6.47
2022-10-24T23:19:47.473Z,6.07
2022-10-24T23:22:33.489Z,5.97
2022-10-24T23:25:19.840Z,6.75
2022-10-24T23:28:24.935Z,6.50
2022-10-24T23:31:10.831Z,7.25
2022-10-24T23:33:57.128Z,8.20
2022-10-24T23:36:44.763Z,7.22
2022-10-24T23:39:34.856Z,8.52
2022-10-24T23:42:20.728Z,8.80
2022-10-24T23:45:11.553Z,9.23
2022-10-24T23:48:25.093Z,8.50
2022-10-24T23:51:35.025Z,9.07
2022-10-24T23:54:26.973Z,10.27
2022-10-24T23:57:17.127Z,10.75
